Time;durP1;ratioP1;P1;durP2;ratioP2;P2;SDS_P1;SDS_P2;PMS_P1;PMS_P2;Temp;Humidity;BMP_temperature;BMP_pressure;BME280_temperature;BME280_humidity;BME280_pressure;Samples;Min_cycle;Max_cycle;Signal;HPM_P1;HPM_P2
2021/09/22 00:02:06;;;;;;;14.70;10.17;;;13.10;99.90;;;;;;5073259;28;20454;-57
2021/09/22 00:04:33;;;;;;;17.77;12.30;;;13.00;99.90;;;;;;5074211;28;20458;-57
2021/09/22 00:07:01;;;;;;;17.73;11.73;;;13.00;99.90;;;;;;5073864;28;20447;-58
2021/09/22 00:09:29;;;;;;;15.97;11.33;;;12.90;99.90;;;;;;5073669;28;20454;-58
2021/09/22 00:11:56;;;;;;;17.70;10.87;;;12.90;99.90;;;;;;5073439;28;20451;-58
2021/09/22 00:14:24;;;;;;;14.43;9.90;;;12.90;99.90;;;;;;5073918;28;20492;-58
2021/09/22 00:16:51;;;;;;;14.93;10.57;;;12.90;99.90;;;;;;5073915;28;20450;-58
2021/09/22 00:19:19;;;;;;;15.50;10.30;;;12.90;99.90;;;;;;5073686;28;20458;-58
2021/09/22 00:21:46;;;;;;;16.00;10.47;;;12.80;99.90;;;;;;5072670;28;20455;-59
2021/09/22 00:24:14;;;;;;;17.80;11.80;;;12.80;99.90;;;;;;5073670;28;20451;-58
2021/09/22 00:26:41;;;;;;;17.07;10.87;;;12.70;99.90;;;;;;5073805;28;20951;-58
2021/09/22 00:29:08;;;;;;;16.87;11.17;;;12.60;99.90;;;;;;5073280;28;20447;-58
2021/09/22 00:31:36;;;;;;;19.63;11.47;;;12.70;99.90;;;;;;5073377;28;20466;-59
2021/09/22 00:34:03;;;;;;;16.60;11.07;;;12.60;99.90;;;;;;5073430;28;20486;-58
2021/09/22 00:36:33;;;;;;;15.33;10.77;;;12.60;99.90;;;;;;5073767;28;20458;-59
2021/09/22 00:39:00;;;;;;;19.30;12.23;;;12.60;99.90;;;;;;5073037;28;20442;-58
2021/09/22 00:41:27;;;;;;;19.13;12.37;;;12.60;99.90;;;;;;5072895;28;20466;-58
2021/09/22 00:43:54;;;;;;;18.50;11.27;;;12.60;99.90;;;;;;5073303;28;20479;-58
2021/09/22 00:46:22;;;;;;;18.63;12.60;;;12.50;99.90;;;;;;5073406;28;21138;-57
2021/09/22 00:48:49;;;;;;;19.07;11.40;;;12.60;99.90;;;;;;5073092;28;20451;-59
2021/09/22 00:51:16;;;;;;;17.73;11.40;;;12.60;99.90;;;;;;5072641;28;20828;-56
2021/09/22 00:53:44;;;;;;;22.37;12.70;;;12.50;99.90;;;;;;5072461;28;20489;-58
2021/09/22 00:56:11;;;;;;;18.03;11.30;;;12.50;99.90;;;;;;5073014;28;20450;-57
2021/09/22 00:58:39;;;;;;;20.13;12.73;;;12.50;99.90;;;;;;5072929;28;21124;-57
2021/09/22 01:01:06;;;;;;;19.93;12.10;;;12.30;99.90;;;;;;5073055;28;20451;-57
2021/09/22 01:03:33;;;;;;;21.80;12.13;;;12.30;99.90;;;;;;5072078;28;20553;-58
2021/09/22 01:06:01;;;;;;;20.17;12.70;;;12.20;99.90;;;;;;5073073;28;20451;-58
2021/09/22 01:08:29;;;;;;;17.37;11.90;;;12.30;99.90;;;;;;5072362;28;20447;-57
2021/09/22 01:10:58;;;;;;;18.73;11.83;;;12.30;99.90;;;;;;5072656;28;20458;-57
2021/09/22 01:13:26;;;;;;;17.27;10.80;;;12.40;99.90;;;;;;5072338;28;20972;-56
2021/09/22 01:15:54;;;;;;;16.13;10.87;;;12.40;99.90;;;;;;5072952;28;20458;-56
2021/09/22 01:18:23;;;;;;;14.30;10.60;;;12.50;99.90;;;;;;5072421;28;20442;-56
2021/09/22 01:20:52;;;;;;;19.23;11.43;;;12.50;99.90;;;;;;5072213;28;20544;-57
2021/09/22 01:23:22;;;;;;;18.30;12.00;;;12.50;99.90;;;;;;5071741;28;20471;-57
2021/09/22 01:25:51;;;;;;;19.87;13.17;;;12.30;99.90;;;;;;5072619;28;20442;-57
2021/09/22 01:28:21;;;;;;;19.77;12.40;;;12.30;99.90;;;;;;5071163;28;20454;-57
2021/09/22 01:30:48;;;;;;;18.77;11.90;;;12.20;99.90;;;;;;5052320;28;20448;-58
2021/09/22 01:33:17;;;;;;;16.97;11.47;;;12.20;99.90;;;;;;5067996;28;20489;-57
2021/09/22 01:35:47;;;;;;;20.63;12.67;;;12.30;99.90;;;;;;5072122;28;20446;-58
2021/09/22 01:38:15;;;;;;;18.50;11.73;;;12.20;99.90;;;;;;5072295;28;20500;-60
2021/09/22 01:40:56;;;;;;;18.90;12.20;;;12.20;99.90;;;;;;5071698;28;20451;-58
2021/09/22 01:43:23;;;;;;;25.60;11.83;;;12.10;99.90;;;;;;5071835;28;20553;-56
2021/09/22 01:45:51;;;;;;;30.93;13.47;;;12.10;99.90;;;;;;5071782;28;20447;-57
2021/09/22 01:48:18;;;;;;;20.50;13.37;;;12.00;99.90;;;;;;5071887;28;20862;-57
2021/09/22 01:50:45;;;;;;;22.43;13.30;;;12.00;99.90;;;;;;5071653;28;20488;-57
2021/09/22 01:53:13;;;;;;;24.07;13.23;;;11.90;99.90;;;;;;5071107;28;20519;-57
2021/09/22 01:55:40;;;;;;;20.40;12.57;;;11.90;99.90;;;;;;5071643;28;20450;-59
2021/09/22 01:58:09;;;;;;;20.60;12.63;;;11.90;99.90;;;;;;5071702;28;20443;-57
2021/09/22 02:00:36;;;;;;;20.80;12.60;;;12.00;99.90;;;;;;5071676;28;20457;-56
2021/09/22 02:03:03;;;;;;;22.60;13.20;;;11.90;99.90;;;;;;5071314;28;20819;-56
2021/09/22 02:05:30;;;;;;;21.57;12.87;;;12.00;99.90;;;;;;5071954;28;20443;-58
2021/09/22 02:07:57;;;;;;;23.27;13.20;;;12.00;99.90;;;;;;5071904;28;20446;-57
2021/09/22 02:10:25;;;;;;;19.80;11.67;;;11.90;99.90;;;;;;5071212;28;20442;-58
2021/09/22 02:12:52;;;;;;;18.50;11.57;;;11.90;99.90;;;;;;5071109;28;21109;-58
2021/09/22 02:15:21;;;;;;;20.43;12.97;;;11.90;99.90;;;;;;5071690;28;20486;-56
2021/09/22 02:17:48;;;;;;;20.70;12.40;;;11.90;99.90;;;;;;5071582;28;20451;-56
2021/09/22 02:20:18;;;;;;;19.67;12.73;;;11.90;99.90;;;;;;5071281;28;20982;-58
2021/09/22 02:22:45;;;;;;;19.57;13.13;;;11.90;99.90;;;;;;5070778;28;20520;-57
2021/09/22 02:25:13;;;;;;;27.30;14.97;;;11.80;99.90;;;;;;5071402;28;20447;-57
2021/09/22 02:27:41;;;;;;;24.00;15.00;;;11.60;99.90;;;;;;5071445;28;20455;-56
2021/09/22 02:30:12;;;;;;;29.40;15.50;;;11.60;99.90;;;;;;5071482;28;20455;-57
2021/09/22 02:32:42;;;;;;;30.13;16.90;;;11.60;99.90;;;;;;5071596;28;20467;-57
2021/09/22 02:35:11;;;;;;;27.30;16.00;;;11.50;99.90;;;;;;5071234;28;20478;-57
2021/09/22 02:37:38;;;;;;;32.73;17.07;;;11.50;99.90;;;;;;5071226;28;20447;-56
2021/09/22 02:40:09;;;;;;;31.67;16.77;;;11.60;99.90;;;;;;5070801;28;20960;-57
2021/09/22 02:42:36;;;;;;;32.10;17.23;;;11.40;99.90;;;;;;5090506;22;20887;-59
2021/09/22 02:45:03;;;;;;;28.70;16.30;;;11.50;99.90;;;;;;5051500;28;20436;-59
2021/09/22 02:47:30;;;;;;;26.90;14.87;;;11.60;99.90;;;;;;5051692;28;20452;-59
2021/09/22 02:49:59;;;;;;;32.37;17.57;;;11.70;99.90;;;;;;5051364;28;20452;-59
2021/09/22 02:52:26;;;;;;;30.73;17.67;;;11.80;99.90;;;;;;5056573;28;20503;-59
2021/09/22 02:54:53;;;;;;;34.67;16.90;;;11.60;99.90;;;;;;5039548;28;21008;-60
2021/09/22 02:57:20;;;;;;;29.93;17.07;;;11.70;99.90;;;;;;5027732;28;20452;-59
2021/09/22 02:59:47;;;;;;;32.20;17.00;;;11.80;99.90;;;;;;5035324;28;20452;-60
2021/09/22 03:02:14;;;;;;;31.37;17.43;;;11.70;99.90;;;;;;5035644;28;20453;-59
2021/09/22 03:04:41;;;;;;;28.27;16.63;;;11.80;99.90;;;;;;5035545;28;20453;-59
2021/09/22 03:07:09;;;;;;;29.63;16.33;;;11.80;99.90;;;;;;5018502;28;20453;-59
2021/09/22 03:09:36;;;;;;;26.80;15.90;;;11.70;99.90;;;;;;5020876;28;20442;-59
2021/09/22 03:12:03;;;;;;;26.97;14.90;;;11.80;99.90;;;;;;5020260;28;20452;-59
2021/09/22 03:14:30;;;;;;;29.47;16.37;;;11.80;99.90;;;;;;5035242;28;20488;-59
2021/09/22 03:16:58;;;;;;;26.23;14.60;;;11.80;99.90;;;;;;5035240;28;20456;-59
2021/09/22 03:19:25;;;;;;;30.00;16.17;;;11.90;99.90;;;;;;5034940;28;20452;-59
2021/09/22 03:21:52;;;;;;;27.30;16.37;;;12.00;99.90;;;;;;5033903;28;20460;-59
2021/09/22 03:24:20;;;;;;;31.47;17.10;;;12.10;99.90;;;;;;5033369;28;21056;-59
2021/09/22 03:26:47;;;;;;;28.47;15.60;;;12.10;99.90;;;;;;5035239;28;20451;-60
2021/09/22 03:29:14;;;;;;;30.87;16.97;;;12.00;99.90;;;;;;5034943;28;20460;-59
2021/09/22 03:31:42;;;;;;;29.20;15.40;;;12.00;99.90;;;;;;5034880;28;20873;-60
2021/09/22 03:34:10;;;;;;;28.10;16.40;;;12.10;99.90;;;;;;5042828;28;20484;-59
2021/09/22 03:36:37;;;;;;;23.60;13.33;;;12.10;99.90;;;;;;5034652;28;20456;-59
2021/09/22 03:39:04;;;;;;;24.13;14.87;;;12.20;99.90;;;;;;5034742;28;20448;-59
2021/09/22 03:41:32;;;;;;;23.00;13.80;;;12.30;99.90;;;;;;5030768;28;20458;-59
2021/09/22 03:44:00;;;;;;;24.10;15.17;;;12.30;99.90;;;;;;5050832;28;20475;-60
2021/09/22 03:46:27;;;;;;;22.60;14.20;;;12.30;99.90;;;;;;5054650;28;20451;-59
2021/09/22 03:48:54;;;;;;;26.50;14.40;;;12.30;99.90;;;;;;5051706;28;20458;-59
2021/09/22 03:51:21;;;;;;;25.00;14.70;;;12.40;99.90;;;;;;5020835;28;20879;-59
2021/09/22 03:53:48;;;;;;;25.57;15.13;;;12.30;99.90;;;;;;5032121;28;20472;-59
2021/09/22 03:56:15;;;;;;;28.33;16.50;;;12.10;99.90;;;;;;5033080;28;20534;-59
2021/09/22 03:58:43;;;;;;;27.87;15.37;;;12.10;99.90;;;;;;5037683;28;20448;-61
2021/09/22 04:01:10;;;;;;;25.33;14.70;;;12.10;99.90;;;;;;5034031;28;20968;-59
2021/09/22 04:03:37;;;;;;;25.17;15.73;;;12.20;99.90;;;;;;5034742;28;20483;-59
2021/09/22 04:06:04;;;;;;;24.20;15.53;;;12.10;99.90;;;;;;5030514;28;20823;-60
2021/09/22 04:08:32;;;;;;;24.63;14.93;;;12.10;99.90;;;;;;5034394;28;20518;-59
2021/09/22 04:10:59;;;;;;;22.67;13.70;;;12.20;99.90;;;;;;5026338;28;20514;-59
2021/09/22 04:13:26;;;;;;;25.30;15.27;;;12.20;99.90;;;;;;5032389;28;20550;-59
2021/09/22 04:15:54;;;;;;;30.63;14.93;;;12.20;99.90;;;;;;5034130;28;21025;-59
2021/09/22 04:18:21;;;;;;;22.13;13.97;;;12.20;99.90;;;;;;5034033;28;20472;-59
2021/09/22 04:20:48;;;;;;;22.83;14.17;;;12.20;99.90;;;;;;5029801;28;20449;-60
2021/09/22 04:23:15;;;;;;;25.37;14.63;;;12.20;99.90;;;;;;5032950;28;20472;-59
2021/09/22 04:25:42;;;;;;;24.87;14.90;;;12.00;99.90;;;;;;5033959;28;20476;-60
2021/09/22 04:28:09;;;;;;;22.57;14.97;;;12.10;99.90;;;;;;5032660;28;20457;-59
2021/09/22 04:30:36;;;;;;;25.77;14.27;;;12.10;99.90;;;;;;5028367;28;20456;-59
2021/09/22 04:33:05;;;;;;;22.50;13.80;;;12.20;99.90;;;;;;5032393;28;20491;-58
2021/09/22 04:35:34;;;;;;;25.73;15.10;;;12.20;99.90;;;;;;5025577;28;20517;-59
2021/09/22 04:38:02;;;;;;;25.53;15.00;;;12.20;99.90;;;;;;5043731;28;20457;-59
2021/09/22 04:40:33;;;;;;;26.97;16.30;;;12.10;99.90;;;;;;5039572;28;20445;-59
2021/09/22 04:43:01;;;;;;;22.60;13.43;;;12.20;99.90;;;;;;5033364;28;20484;-59
2021/09/22 04:45:29;;;;;;;26.03;15.77;;;12.20;99.90;;;;;;5033351;28;20459;-59
2021/09/22 04:47:57;;;;;;;24.27;15.17;;;12.10;99.90;;;;;;5033524;28;20448;-59
2021/09/22 04:50:28;;;;;;;22.27;14.03;;;12.10;99.90;;;;;;5033164;28;20456;-58
2021/09/22 04:52:55;;;;;;;27.97;17.40;;;12.10;99.90;;;;;;5033725;28;20468;-59
2021/09/22 04:55:24;;;;;;;24.57;15.40;;;12.00;99.90;;;;;;5033296;28;20484;-59
2021/09/22 04:57:51;;;;;;;25.90;15.43;;;12.00;99.90;;;;;;5033292;28;20463;-60
2021/09/22 05:00:18;;;;;;;25.57;14.70;;;11.90;99.90;;;;;;5033032;28;20452;-58
2021/09/22 05:02:45;;;;;;;22.00;14.90;;;12.00;99.90;;;;;;5033446;28;20465;-59
2021/09/22 05:05:13;;;;;;;20.40;12.87;;;12.10;99.90;;;;;;5053023;28;20448;-59
2021/09/22 05:07:42;;;;;;;21.90;12.80;;;12.10;99.90;;;;;;5045627;28;21018;-58
2021/09/22 05:10:10;;;;;;;22.37;13.03;;;12.20;99.90;;;;;;5032879;28;20506;-59
2021/09/22 05:12:37;;;;;;;21.53;13.40;;;12.20;99.90;;;;;;5049613;28;20485;-59
2021/09/22 05:15:05;;;;;;;27.10;15.00;;;12.20;99.90;;;;;;5052020;28;20487;-58
2021/09/22 05:17:32;;;;;;;23.70;13.80;;;12.20;99.90;;;;;;5051100;28;20945;-59
2021/09/22 05:19:59;;;;;;;19.77;13.00;;;12.20;99.90;;;;;;5033063;28;20510;-59
2021/09/22 05:22:26;;;;;;;21.27;12.73;;;12.20;99.90;;;;;;5035869;28;20449;-59
2021/09/22 05:24:54;;;;;;;23.10;12.83;;;12.20;99.90;;;;;;5032781;28;20445;-59
2021/09/22 05:27:21;;;;;;;23.77;15.10;;;12.20;99.90;;;;;;5034150;28;20453;-59
2021/09/22 05:29:48;;;;;;;21.47;13.10;;;12.20;99.90;;;;;;5032254;28;20480;-59
2021/09/22 05:32:15;;;;;;;21.03;12.87;;;12.30;99.90;;;;;;5012753;28;20446;-59
2021/09/22 05:34:42;;;;;;;22.70;13.93;;;12.30;99.90;;;;;;5022178;28;20477;-59
2021/09/22 05:37:09;;;;;;;22.67;14.03;;;12.30;99.90;;;;;;5013926;28;20445;-59
2021/09/22 05:39:36;;;;;;;24.80;13.77;;;12.20;99.90;;;;;;5032092;28;20453;-59
2021/09/22 05:42:05;;;;;;;20.03;13.13;;;12.10;99.90;;;;;;5023532;28;20926;-59
2021/09/22 05:44:32;;;;;;;22.67;13.10;;;12.20;99.90;;;;;;5013046;28;20485;-59
2021/09/22 05:46:59;;;;;;;19.80;13.10;;;12.20;99.90;;;;;;5027105;28;21078;-58
2021/09/22 05:49:27;;;;;;;21.40;13.20;;;12.30;99.90;;;;;;5027566;28;20445;-59
2021/09/22 05:51:54;;;;;;;18.83;12.20;;;12.30;99.90;;;;;;5025068;28;20459;-59
2021/09/22 05:54:22;;;;;;;22.23;13.30;;;12.30;99.90;;;;;;5020237;28;20472;-59
2021/09/22 05:56:49;;;;;;;20.50;12.00;;;12.30;99.90;;;;;;5036537;28;20564;-59
2021/09/22 05:59:18;;;;;;;20.97;13.13;;;12.30;99.90;;;;;;5032002;28;20449;-60
2021/09/22 06:01:45;;;;;;;20.13;13.23;;;12.40;99.90;;;;;;5031944;28;20459;-59
2021/09/22 06:04:12;;;;;;;22.27;13.67;;;12.50;99.90;;;;;;5024383;28;20469;-59
2021/09/22 06:06:39;;;;;;;24.27;13.07;;;12.50;99.90;;;;;;5024871;28;20453;-59
2021/09/22 06:09:06;;;;;;;21.93;13.33;;;12.60;99.90;;;;;;5024815;28;20506;-58
2021/09/22 06:11:33;;;;;;;23.80;13.90;;;12.70;99.90;;;;;;5039948;28;20444;-59
2021/09/22 06:14:00;;;;;;;26.87;15.10;;;12.80;99.90;;;;;;5051038;28;20521;-59
2021/09/22 06:16:29;;;;;;;23.63;13.70;;;12.70;99.90;;;;;;5031940;28;20491;-59
2021/09/22 06:18:56;;;;;;;24.67;14.33;;;12.80;99.90;;;;;;5031635;28;20449;-59
2021/09/22 06:21:23;;;;;;;22.90;13.30;;;12.80;99.90;;;;;;5030179;28;20452;-59
2021/09/22 06:23:53;;;;;;;24.80;14.07;;;12.90;99.90;;;;;;5039385;28;20468;-59
2021/09/22 06:26:21;;;;;;;24.07;13.97;;;13.00;99.90;;;;;;5033778;28;20443;-59
2021/09/22 06:28:48;;;;;;;20.93;13.23;;;13.00;99.90;;;;;;5031701;28;20461;-59
2021/09/22 06:31:16;;;;;;;24.30;15.13;;;13.10;99.90;;;;;;5029987;28;20466;-59
2021/09/22 06:33:44;;;;;;;29.10;14.70;;;13.10;99.90;;;;;;5029716;28;20469;-59
2021/09/22 06:36:11;;;;;;;23.77;14.43;;;13.10;99.90;;;;;;5032043;28;20492;-59
2021/09/22 06:38:39;;;;;;;25.37;14.30;;;13.00;99.90;;;;;;5031781;28;20460;-58
2021/09/22 06:41:06;;;;;;;28.60;14.50;;;13.10;99.90;;;;;;5030345;28;20457;-59
2021/09/22 06:43:33;;;;;;;24.70;14.03;;;13.10;99.90;;;;;;5031291;28;20472;-59
2021/09/22 06:46:01;;;;;;;20.43;11.93;;;13.20;99.90;;;;;;5031083;28;20451;-59
2021/09/22 06:48:29;;;;;;;19.40;12.47;;;13.30;99.90;;;;;;5023142;28;20449;-59
2021/09/22 06:50:58;;;;;;;24.20;12.83;;;13.50;99.90;;;;;;5031362;28;20436;-59
2021/09/22 06:53:25;;;;;;;23.40;14.57;;;13.50;99.90;;;;;;5030396;28;20515;-59
2021/09/22 06:55:52;;;;;;;22.20;13.87;;;13.50;99.90;;;;;;5030589;28;20491;-58
2021/09/22 06:58:19;;;;;;;24.03;13.93;;;13.50;99.90;;;;;;5030616;28;20605;-59
2021/09/22 07:00:46;;;;;;;23.20;13.90;;;13.50;99.90;;;;;;5029960;28;20448;-59
2021/09/22 07:03:14;;;;;;;23.33;13.93;;;13.60;99.90;;;;;;5022020;28;20476;-58
2021/09/22 07:05:43;;;;;;;20.50;12.90;;;13.60;99.90;;;;;;5029386;28;20989;-59
2021/09/22 07:08:12;;;;;;;24.87;13.57;;;13.70;99.90;;;;;;5031298;28;20463;-58
2021/09/22 07:10:40;;;;;;;24.10;14.43;;;13.70;99.90;;;;;;5030748;28;20544;-59
2021/09/22 07:13:07;;;;;;;27.00;16.40;;;13.80;99.90;;;;;;5030971;28;20531;-58
2021/09/22 07:15:34;;;;;;;30.67;17.37;;;13.90;99.90;;;;;;5030545;28;20484;-59
2021/09/22 07:18:02;;;;;;;25.03;14.73;;;14.00;99.90;;;;;;5028059;28;20460;-59
2021/09/22 07:20:29;;;;;;;24.03;15.30;;;14.10;99.90;;;;;;5025056;28;20528;-58
2021/09/22 07:22:57;;;;;;;21.50;13.83;;;14.30;99.90;;;;;;5031957;28;20469;-59
2021/09/22 07:25:27;;;;;;;24.57;15.37;;;14.50;99.90;;;;;;5045839;28;20452;-59
2021/09/22 07:27:54;;;;;;;27.27;15.50;;;14.50;99.90;;;;;;5042276;28;20455;-59
2021/09/22 07:30:21;;;;;;;25.90;15.57;;;14.60;99.90;;;;;;5035282;28;20902;-58
2021/09/22 07:32:49;;;;;;;25.37;15.00;;;14.30;99.90;;;;;;5038733;28;20471;-59
2021/09/22 07:35:17;;;;;;;29.67;14.80;;;14.10;99.90;;;;;;5043177;28;20808;-59
2021/09/22 07:37:45;;;;;;;29.73;15.33;;;14.00;99.90;;;;;;5038130;28;20975;-59
2021/09/22 07:40:14;;;;;;;23.90;14.70;;;14.20;99.90;;;;;;5040548;28;20539;-58
2021/09/22 07:42:43;;;;;;;26.87;15.37;;;14.40;99.90;;;;;;5054315;28;20475;-59
2021/09/22 07:45:11;;;;;;;22.10;14.40;;;14.50;99.90;;;;;;5054444;28;20444;-59
2021/09/22 07:47:38;;;;;;;24.30;15.00;;;14.70;99.90;;;;;;5050683;28;20458;-58
2021/09/22 07:50:08;;;;;;;27.23;15.87;;;14.80;99.90;;;;;;5033876;28;20456;-59
2021/09/22 07:52:36;;;;;;;23.57;15.37;;;14.30;99.90;;;;;;5033796;28;20476;-59
2021/09/22 07:55:04;;;;;;;27.23;16.10;;;14.10;99.90;;;;;;5034328;28;20453;-59
2021/09/22 07:57:31;;;;;;;24.57;16.60;;;14.20;99.90;;;;;;5050072;28;20458;-59
2021/09/22 08:00:00;;;;;;;23.30;14.67;;;14.40;99.90;;;;;;5046847;28;20454;-59
2021/09/22 08:02:27;;;;;;;25.80;16.00;;;14.60;99.90;;;;;;5053974;28;20452;-59
2021/09/22 08:04:54;;;;;;;28.40;17.17;;;14.60;99.90;;;;;;5054151;28;20455;-59
2021/09/22 08:07:21;;;;;;;26.73;15.40;;;14.30;99.90;;;;;;5052328;28;20452;-59
2021/09/22 08:09:49;;;;;;;30.73;16.17;;;14.40;99.90;;;;;;5043971;28;20461;-59
2021/09/22 08:12:16;;;;;;;24.90;14.50;;;14.40;99.90;;;;;;5033697;28;20453;-59
2021/09/22 08:14:43;;;;;;;24.30;14.37;;;14.60;99.90;;;;;;5033988;28;20827;-59
2021/09/22 08:17:14;;;;;;;23.93;14.40;;;14.90;99.90;;;;;;5034996;28;20484;-58
2021/09/22 08:19:41;;;;;;;23.43;13.97;;;15.00;99.90;;;;;;5034663;28;20461;-60
2021/09/22 08:22:08;;;;;;;25.80;15.20;;;15.00;99.90;;;;;;5039712;28;20445;-59
2021/09/22 08:24:36;;;;;;;25.77;14.87;;;15.10;99.90;;;;;;5043940;28;20460;-59
2021/09/22 08:27:05;;;;;;;21.03;12.63;;;15.00;99.90;;;;;;5035062;28;20531;-59
2021/09/22 08:29:32;;;;;;;22.03;13.20;;;15.00;99.90;;;;;;5033393;28;20876;-59
2021/09/22 08:31:59;;;;;;;21.80;13.27;;;15.10;99.90;;;;;;5033364;28;20464;-60
2021/09/22 08:34:28;;;;;;;22.47;13.23;;;15.00;99.90;;;;;;5033493;28;20461;-59
2021/09/22 08:36:55;;;;;;;25.37;13.73;;;14.70;99.90;;;;;;5037331;28;20479;-59
2021/09/22 08:39:22;;;;;;;22.00;13.50;;;14.40;99.90;;;;;;5039889;28;20460;-59
2021/09/22 08:41:49;;;;;;;21.93;13.50;;;14.10;99.90;;;;;;5033394;28;20471;-60
2021/09/22 08:44:18;;;;;;;24.00;14.90;;;14.10;99.90;;;;;;5039427;28;20565;-59
2021/09/22 08:46:46;;;;;;;23.77;13.90;;;14.40;99.90;;;;;;5038939;28;20527;-59
2021/09/22 08:49:14;;;;;;;20.20;13.50;;;14.80;99.90;;;;;;5032076;28;20832;-59
2021/09/22 08:51:44;;;;;;;24.50;13.20;;;15.00;99.90;;;;;;5033141;28;20444;-59
2021/09/22 08:54:11;;;;;;;21.60;14.27;;;15.10;99.90;;;;;;5033098;28;20534;-59
2021/09/22 08:56:39;;;;;;;20.83;13.37;;;15.20;99.90;;;;;;5047381;28;20487;-59
2021/09/22 08:59:07;;;;;;;20.47;11.80;;;15.40;99.90;;;;;;5043734;28;20449;-60
2021/09/22 09:01:34;;;;;;;22.57;12.60;;;15.80;99.90;;;;;;5032686;28;20875;-61
2021/09/22 09:04:14;;;;;;;20.50;12.53;;;16.20;99.90;;;;;;5032535;28;20479;-59
2021/09/22 09:06:42;;;;;;;21.47;12.50;;;17.00;99.90;;;;;;5033279;28;21226;-60
2021/09/22 09:09:10;;;;;;;19.03;12.07;;;17.60;99.90;;;;;;5033032;28;20495;-60
2021/09/22 09:11:39;;;;;;;20.07;13.10;;;17.70;99.90;;;;;;5032867;28;20456;-60
2021/09/22 09:14:08;;;;;;;22.13;13.57;;;17.40;99.90;;;;;;5032782;28;21005;-60
2021/09/22 09:16:38;;;;;;;21.97;13.93;;;17.80;99.90;;;;;;5032782;28;20492;-60
2021/09/22 09:19:13;;;;;;;21.17;14.00;;;18.10;99.90;;;;;;5032490;28;20536;-59
2021/09/22 09:22:00;;;;;;;22.50;14.60;;;16.90;99.90;;;;;;5031783;28;20443;-60
2021/09/22 09:24:37;;;;;;;33.80;13.77;;;16.60;99.90;;;;;;5052499;28;20475;-60
2021/09/22 09:27:06;;;;;;;20.80;14.30;;;16.30;99.90;;;;;;5052599;28;20862;-61
2021/09/22 09:29:33;;;;;;;19.77;13.13;;;16.40;99.90;;;;;;5049035;28;20474;-59
2021/09/22 09:32:17;;;;;;;19.37;13.70;;;16.50;99.90;;;;;;5052360;28;20460;-60
2021/09/22 09:35:02;;;;;;;20.73;13.37;;;16.20;99.90;;;;;;5052531;28;20455;-60
2021/09/22 09:37:34;;;;;;;20.90;13.70;;;16.10;99.90;;;;;;5034236;28;20476;-60
2021/09/22 09:40:21;;;;;;;21.10;13.47;;;16.50;99.90;;;;;;5032005;28;20806;-60
2021/09/22 09:42:51;;;;;;;18.03;12.43;;;16.90;99.90;;;;;;5033127;28;20990;-59
2021/09/22 09:45:20;;;;;;;16.50;12.00;;;17.30;99.90;;;;;;5033166;28;20950;-60
2021/09/22 09:48:03;;;;;;;21.27;12.57;;;17.60;99.90;;;;;;5032235;28;20456;-59
2021/09/22 09:50:37;;;;;;;18.03;12.97;;;17.70;99.90;;;;;;5030415;28;20459;-59
2021/09/22 09:53:05;;;;;;;21.50;13.10;;;17.30;99.90;;;;;;5032230;28;20468;-59
2021/09/22 09:55:33;;;;;;;23.23;14.03;;;17.10;99.90;;;;;;5040254;28;20451;-59
2021/09/22 09:58:00;;;;;;;18.27;12.40;;;17.20;99.90;;;;;;5046614;28;20488;-59
2021/09/22 10:00:47;;;;;;;17.57;12.00;;;17.30;99.90;;;;;;5027567;28;20453;-59
2021/09/22 10:03:16;;;;;;;19.00;13.53;;;17.60;99.90;;;;;;5031682;28;20464;-59
2021/09/22 10:05:44;;;;;;;24.33;13.50;;;16.90;99.90;;;;;;5032086;28;20515;-60
2021/09/22 10:08:13;;;;;;;25.97;14.90;;;16.70;99.90;;;;;;5016941;28;20465;-59
2021/09/22 10:10:43;;;;;;;27.10;15.50;;;16.40;99.90;;;;;;5031586;28;20960;-59
2021/09/22 10:13:11;;;;;;;18.20;12.60;;;16.20;99.90;;;;;;5031661;28;20548;-59
2021/09/22 10:15:40;;;;;;;20.80;13.10;;;16.90;99.90;;;;;;5032020;28;20444;-59
2021/09/22 10:18:08;;;;;;;19.80;13.37;;;17.60;99.90;;;;;;5041688;28;20493;-60
2021/09/22 10:20:37;;;;;;;21.13;14.10;;;18.30;99.90;;;;;;5033185;28;20448;-59
2021/09/22 10:23:05;;;;;;;20.40;13.50;;;17.50;99.90;;;;;;5026228;28;20539;-59
2021/09/22 10:25:34;;;;;;;22.20;14.60;;;17.90;99.90;;;;;;5011831;28;20939;-59
2021/09/22 10:28:01;;;;;;;24.30;13.70;;;18.20;99.90;;;;;;5014079;28;20445;-59
2021/09/22 10:30:37;;;;;;;20.53;13.30;;;18.50;99.90;;;;;;5030185;28;20519;-60
2021/09/22 10:33:04;;;;;;;18.30;12.43;;;19.00;99.90;;;;;;5030437;28;20472;-59
2021/09/22 10:35:37;;;;;;;20.97;13.60;;;19.10;99.90;;;;;;5031639;28;20467;-60
2021/09/22 10:38:48;;;;;;;21.27;13.13;;;19.40;99.90;;;;;;5031060;28;20507;-61
2021/09/22 10:41:28;;;;;;;21.77;13.87;;;19.30;99.90;;;;;;4988800;28;20917;-59
2021/09/22 10:43:55;;;;;;;17.90;12.50;;;19.20;99.90;;;;;;5031901;28;20921;-59
2021/09/22 10:46:23;;;;;;;22.80;15.00;;;18.80;99.90;;;;;;5031485;28;20441;-58
2021/09/22 10:49:03;;;;;;;19.63;13.43;;;18.20;99.90;;;;;;5031125;28;20514;-59
2021/09/22 10:51:32;;;;;;;20.40;14.00;;;18.00;99.90;;;;;;5031432;28;20440;-59
2021/09/22 10:54:22;;;;;;;19.53;13.23;;;18.30;99.90;;;;;;5031232;28;20464;-59
2021/09/22 10:57:02;;;;;;;19.60;13.30;;;18.50;99.90;;;;;;5027591;28;20530;-57
2021/09/22 10:59:39;;;;;;;19.17;12.67;;;18.30;99.90;;;;;;5032092;28;20468;-57
2021/09/22 11:02:09;;;;;;;23.07;14.90;;;18.30;99.90;;;;;;5028202;28;20464;-58
2021/09/22 11:04:58;;;;;;;21.17;14.20;;;18.30;99.90;;;;;;5026800;28;20511;-58
2021/09/22 11:08:02;;;;;;;21.17;14.70;;;18.60;99.90;;;;;;5029884;28;20849;-59
2021/09/22 11:10:33;;;;;;;20.13;13.63;;;18.60;99.90;;;;;;5011337;28;20464;-58
2021/09/22 11:13:38;;;;;;;22.07;15.03;;;18.90;99.90;;;;;;5027241;28;20565;-58
2021/09/22 11:16:20;;;;;;;21.27;14.17;;;18.40;99.90;;;;;;5032357;28;20962;-59
2021/09/22 11:18:49;;;;;;;22.27;14.30;;;17.70;99.90;;;;;;5031549;28;20492;-59
2021/09/22 11:21:21;;;;;;;23.90;14.90;;;17.80;99.90;;;;;;5033756;28;20460;-58
2021/09/22 11:23:48;;;;;;;25.10;14.80;;;18.00;99.90;;;;;;5035788;28;20464;-58
2021/09/22 11:26:16;;;;;;;21.90;14.00;;;17.70;99.90;;;;;;5045554;28;20452;-58
2021/09/22 11:28:53;;;;;;;21.93;14.50;;;17.80;99.90;;;;;;5034307;28;20459;-58
2021/09/22 11:31:21;;;;;;;23.50;15.27;;;18.10;99.90;;;;;;5031974;28;20452;-59
2021/09/22 11:33:49;;;;;;;24.37;15.80;;;18.20;99.90;;;;;;5034639;28;20504;-59
2021/09/22 11:36:16;;;;;;;23.37;15.20;;;18.30;99.90;;;;;;5034549;28;20962;-59
2021/09/22 11:38:43;;;;;;;23.03;15.10;;;18.20;99.90;;;;;;5034391;28;20455;-59
2021/09/22 11:41:11;;;;;;;23.07;14.40;;;18.20;99.90;;;;;;5034848;28;20984;-58
2021/09/22 11:43:38;;;;;;;21.27;13.97;;;18.40;99.90;;;;;;5033561;28;20486;-59
2021/09/22 11:46:07;;;;;;;23.33;15.40;;;18.30;99.90;;;;;;5034126;28;20506;-60
2021/09/22 11:48:35;;;;;;;24.80;14.00;;;18.00;99.90;;;;;;5034247;28;20449;-59
2021/09/22 11:51:05;;;;;;;20.13;14.10;;;17.90;99.90;;;;;;5034103;28;20449;-59
2021/09/22 11:53:33;;;;;;;25.20;14.43;;;18.20;99.90;;;;;;5033916;28;21051;-60
2021/09/22 11:56:01;;;;;;;20.83;13.57;;;18.40;99.90;;;;;;5034393;28;20459;-59
2021/09/22 11:58:30;;;;;;;21.33;14.60;;;18.60;99.90;;;;;;5034365;28;20491;-59
2021/09/22 12:00:59;;;;;;;19.77;13.00;;;18.40;99.90;;;;;;5034191;28;20447;-59
2021/09/22 12:03:29;;;;;;;22.00;14.00;;;18.30;99.90;;;;;;5033991;28;20468;-59
2021/09/22 12:06:05;;;;;;;20.17;13.30;;;18.60;99.90;;;;;;5034494;28;20455;-59
2021/09/22 12:08:33;;;;;;;19.67;12.90;;;18.50;99.90;;;;;;5027803;28;20453;-59
2021/09/22 12:11:01;;;;;;;19.40;12.77;;;18.40;99.90;;;;;;5014039;28;20947;-59
2021/09/22 12:13:28;;;;;;;17.37;11.90;;;18.50;99.90;;;;;;5030672;28;20476;-59
2021/09/22 12:15:57;;;;;;;20.23;13.67;;;18.50;99.90;;;;;;5033787;28;21028;-59
2021/09/22 12:18:24;;;;;;;22.80;11.87;;;18.50;99.90;;;;;;5032573;28;20487;-60
2021/09/22 12:20:55;;;;;;;20.23;13.13;;;18.50;99.90;;;;;;5033677;28;20798;-59
2021/09/22 12:23:27;;;;;;;20.10;11.67;;;18.30;99.90;;;;;;5033504;28;21025;-59
2021/09/22 12:26:08;;;;;;;17.90;12.40;;;18.30;99.90;;;;;;5034044;28;20452;-59
2021/09/22 12:28:35;;;;;;;18.83;12.77;;;18.10;99.90;;;;;;5033849;28;20890;-59
2021/09/22 12:31:12;;;;;;;19.50;13.00;;;18.00;99.90;;;;;;5033700;28;20457;-61
2021/09/22 12:33:39;;;;;;;20.33;12.80;;;17.80;99.90;;;;;;5033875;28;20468;-59
2021/09/22 12:36:13;;;;;;;20.60;12.47;;;17.90;99.90;;;;;;5040221;28;20449;-59
2021/09/22 12:38:49;;;;;;;20.10;12.87;;;18.10;99.90;;;;;;5033559;28;20495;-58